createdAt,value
2023-03-06T00:00:55.009Z,15.80
2023-03-06T00:03:23.710Z,15.90
2023-03-06T00:05:51.541Z,17.70
2023-03-06T00:08:19.319Z,14.60
2023-03-06T00:10:48.462Z,14.53
2023-03-06T00:13:18.951Z,14.67
2023-03-06T00:15:47.096Z,14.57
2023-03-06T00:18:15.331Z,14.43
2023-03-06T00:20:44.638Z,14.27
2023-03-06T00:23:12.493Z,17.73
2023-03-06T00:25:43.775Z,15.40
2023-03-06T00:28:14.928Z,15.93
2023-03-06T00:30:42.946Z,12.67
2023-03-06T00:33:10.674Z,11.73
2023-03-06T00:35:39.590Z,14.83
2023-03-06T00:38:07.608Z,13.03
2023-03-06T00:40:35.307Z,16.33
2023-03-06T00:43:03.013Z,14.80
2023-03-06T00:45:32.145Z,14.47
2023-03-06T00:47:59.824Z,15.37
2023-03-06T00:50:27.500Z,18.97
2023-03-06T00:52:55.527Z,19.20
2023-03-06T00:55:23.255Z,15.67
2023-03-06T00:57:50.944Z,14.90
2023-03-06T01:00:19.604Z,18.17
2023-03-06T01:02:48.715Z,17.40
2023-03-06T01:05:16.606Z,14.63
2023-03-06T01:07:44.294Z,15.33
2023-03-06T01:10:13.338Z,17.07
2023-03-06T01:12:41.020Z,19.37
2023-03-06T01:15:09.866Z,18.83
2023-03-06T01:17:37.648Z,16.90
2023-03-06T01:20:08.189Z,16.43
2023-03-06T01:22:35.880Z,16.27
2023-03-06T01:25:03.593Z,17.87
2023-03-06T01:27:31.699Z,20.50
2023-03-06T01:29:59.497Z,20.83
2023-03-06T01:32:27.248Z,21.20
2023-03-06T01:34:55.176Z,22.10
2023-03-06T01:37:24.587Z,21.73
2023-03-06T01:39:52.295Z,21.70
2023-03-06T01:42:19.933Z,23.30
2023-03-06T01:45:01.286Z,17.77
2023-03-06T01:47:29.153Z,19.83
2023-03-06T01:49:58.850Z,20.77
2023-03-06T01:52:32.284Z,23.63
2023-03-06T01:55:03.788Z,18.27
2023-03-06T01:57:34.929Z,17.83
2023-03-06T02:00:06.586Z,17.30
2023-03-06T02:02:34.423Z,20.97
2023-03-06T02:05:05.372Z,18.57
2023-03-06T02:07:35.369Z,19.50
2023-03-06T02:10:03.111Z,20.33
2023-03-06T02:12:31.138Z,21.17
2023-03-06T02:14:58.815Z,18.77
2023-03-06T02:17:26.842Z,21.37
2023-03-06T02:20:04.054Z,19.13
2023-03-06T02:22:38.838Z,19.53
2023-03-06T02:25:13.119Z,21.67
2023-03-06T02:27:42.257Z,19.97
2023-03-06T02:30:11.709Z,22.97
2023-03-06T02:32:39.517Z,23.10
2023-03-06T02:35:08.368Z,19.50
2023-03-06T02:37:36.041Z,20.57
2023-03-06T02:40:13.224Z,20.33
2023-03-06T02:42:46.972Z,23.33
2023-03-06T02:45:18.393Z,21.77
2023-03-06T02:47:46.025Z,23.50
2023-03-06T02:50:13.763Z,23.87
2023-03-06T02:52:41.587Z,22.27
2023-03-06T02:55:10.195Z,22.70
2023-03-06T02:57:37.921Z,22.13
2023-03-06T03:00:08.602Z,20.53
2023-03-06T03:02:36.707Z,19.57
2023-03-06T03:05:05.633Z,19.83
2023-03-06T03:07:33.392Z,22.83
2023-03-06T03:10:01.117Z,22.90
2023-03-06T03:12:29.205Z,20.10
2023-03-06T03:14:59.090Z,20.20
2023-03-06T03:17:28.196Z,19.30
2023-03-06T03:19:55.912Z,21.90
2023-03-06T03:22:24.130Z,19.07
2023-03-06T03:24:51.813Z,20.27
2023-03-06T03:27:19.578Z,20.73
2023-03-06T03:29:47.236Z,21.20
2023-03-06T03:32:14.997Z,19.90
2023-03-06T03:34:44.014Z,21.50
2023-03-06T03:37:11.818Z,20.67
2023-03-06T03:39:39.524Z,22.43
2023-03-06T03:42:07.845Z,19.67
2023-03-06T03:44:35.514Z,23.93
2023-03-06T03:47:03.192Z,19.40
2023-03-06T03:49:31.094Z,22.23
2023-03-06T03:52:00.145Z,21.57
2023-03-06T03:54:27.875Z,21.87
2023-03-06T03:56:55.539Z,18.70
2023-03-06T03:59:23.526Z,23.93
2023-03-06T04:01:52.140Z,24.27
2023-03-06T04:04:19.939Z,21.97
2023-03-06T04:06:47.623Z,20.60
2023-03-06T04:09:16.775Z,26.00
2023-03-06T04:11:44.443Z,25.80
2023-03-06T04:14:12.109Z,22.97
2023-03-06T04:16:39.867Z,21.87
2023-03-06T04:19:07.528Z,24.20
2023-03-06T04:21:35.175Z,20.70
2023-03-06T04:24:02.850Z,26.77
2023-03-06T04:26:31.861Z,25.70
2023-03-06T04:28:59.720Z,24.13
2023-03-06T04:31:27.481Z,25.27
2023-03-06T04:33:55.189Z,21.63
2023-03-06T04:36:28.281Z,26.43
2023-03-06T04:38:55.980Z,22.77
2023-03-06T04:41:23.975Z,26.50
2023-03-06T04:43:53.717Z,28.17
2023-03-06T04:46:21.397Z,28.90
2023-03-06T04:48:49.122Z,25.27
2023-03-06T04:51:16.998Z,25.73
2023-03-06T04:53:44.722Z,28.37
2023-03-06T04:56:12.605Z,27.47
2023-03-06T04:58:40.301Z,25.33
2023-03-06T05:01:09.670Z,25.43
2023-03-06T05:03:37.556Z,23.13
2023-03-06T05:06:05.906Z,24.73
2023-03-06T05:08:33.633Z,26.67
2023-03-06T05:11:02.677Z,24.77
2023-03-06T05:13:30.982Z,27.77
2023-03-06T05:16:03.366Z,26.97
2023-03-06T05:18:33.150Z,26.03
2023-03-06T05:21:00.885Z,25.37
2023-03-06T05:23:29.309Z,27.50
2023-03-06T05:25:57.114Z,26.77
2023-03-06T05:28:25.924Z,27.97
2023-03-06T05:30:53.729Z,27.57
2023-03-06T05:33:21.452Z,24.83
2023-03-06T05:35:51.335Z,27.13
2023-03-06T05:38:19.484Z,24.00
2023-03-06T05:40:47.139Z,26.43
2023-03-06T05:43:14.943Z,27.03
2023-03-06T05:45:42.775Z,26.77
2023-03-06T05:48:11.894Z,28.27
2023-03-06T05:50:40.190Z,25.10
2023-03-06T05:53:09.253Z,25.47
2023-03-06T05:55:37.230Z,24.70
2023-03-06T05:58:05.243Z,26.87
2023-03-06T06:00:33.099Z,27.20
2023-03-06T06:03:02.300Z,24.07
2023-03-06T06:05:30.376Z,28.93
2023-03-06T06:07:58.342Z,34.53
2023-03-06T06:10:27.625Z,28.93
2023-03-06T06:12:55.267Z,30.13
2023-03-06T06:15:22.981Z,26.93
2023-03-06T06:17:51.048Z,29.00
2023-03-06T06:20:19.015Z,31.03
2023-03-06T06:22:46.813Z,31.73
2023-03-06T06:25:16.878Z,25.70
2023-03-06T06:27:45.946Z,29.33
2023-03-06T06:30:14.278Z,31.30
2023-03-06T06:32:42.057Z,30.57
2023-03-06T06:35:10.362Z,25.43
2023-03-06T06:37:38.046Z,28.23
2023-03-06T06:40:06.993Z,26.53
2023-03-06T06:42:39.853Z,27.23
2023-03-06T06:45:11.516Z,26.63
2023-03-06T06:47:41.344Z,30.03
2023-03-06T06:50:12.954Z,29.27
2023-03-06T06:52:40.745Z,31.37
2023-03-06T06:55:09.537Z,30.07
2023-03-06T06:57:37.237Z,32.97
2023-03-06T07:00:06.052Z,27.20
2023-03-06T07:02:35.160Z,28.97
2023-03-06T07:05:05.125Z,27.60
2023-03-06T07:07:36.511Z,25.60
2023-03-06T07:10:06.466Z,29.90
2023-03-06T07:12:35.102Z,28.10
2023-03-06T07:15:03.312Z,27.37
2023-03-06T07:17:30.979Z,24.60
2023-03-06T07:20:00.589Z,29.03
2023-03-06T07:22:31.927Z,28.30
2023-03-06T07:25:04.178Z,28.70
2023-03-06T07:27:31.905Z,29.73
2023-03-06T07:29:59.565Z,27.53
2023-03-06T07:32:27.328Z,26.30
2023-03-06T07:35:05.716Z,28.20
2023-03-06T07:37:44.547Z,29.07
2023-03-06T07:40:13.322Z,24.90
2023-03-06T07:42:40.997Z,24.53
2023-03-06T07:45:09.586Z,25.70
2023-03-06T07:47:37.290Z,25.27
2023-03-06T07:50:07.257Z,28.57
2023-03-06T07:52:35.022Z,25.80
2023-03-06T07:55:04.814Z,25.13
2023-03-06T07:57:32.514Z,23.53
2023-03-06T08:00:01.154Z,26.27
2023-03-06T08:02:28.815Z,29.27
2023-03-06T08:04:57.022Z,29.50
2023-03-06T08:07:24.776Z,26.57
2023-03-06T08:09:52.836Z,22.80
2023-03-06T08:12:21.849Z,26.00
2023-03-06T08:14:49.555Z,25.67
2023-03-06T08:17:17.268Z,25.33
2023-03-06T08:19:44.991Z,27.77
2023-03-06T08:22:14.004Z,23.60
2023-03-06T08:24:42.205Z,23.70
2023-03-06T08:27:09.904Z,28.47
2023-03-06T08:29:39.111Z,23.90
2023-03-06T08:32:07.481Z,24.20
2023-03-06T08:34:35.179Z,21.73
2023-03-06T08:37:02.867Z,22.80
2023-03-06T08:39:30.692Z,22.50
2023-03-06T08:41:58.421Z,20.67
2023-03-06T08:44:26.152Z,21.03
2023-03-06T08:46:55.194Z,21.00
2023-03-06T08:49:22.931Z,21.50
2023-03-06T08:51:50.704Z,21.20
2023-03-06T08:54:18.641Z,20.67
2023-03-06T08:56:46.308Z,21.03
2023-03-06T08:59:14.581Z,17.60
2023-03-06T09:01:42.416Z,16.13
2023-03-06T09:04:12.697Z,17.77
2023-03-06T09:06:43.272Z,19.97
2023-03-06T09:09:11.273Z,20.43
2023-03-06T09:11:39.636Z,18.37
2023-03-06T09:14:07.602Z,18.90
2023-03-06T09:16:35.423Z,18.17
2023-03-06T09:19:03.219Z,19.00
2023-03-06T09:21:32.446Z,17.37
2023-03-06T09:24:00.631Z,17.20
2023-03-06T09:26:43.500Z,19.27
2023-03-06T09:29:13.303Z,16.40
2023-03-06T09:31:41.000Z,17.30
2023-03-06T09:34:08.704Z,17.60
2023-03-06T09:36:53.457Z,15.43
2023-03-06T09:39:25.191Z,16.60
2023-03-06T09:41:53.720Z,18.70
2023-03-06T09:44:26.090Z,17.17
2023-03-06T09:47:08.074Z,16.97
2023-03-06T09:49:48.758Z,16.67
2023-03-06T09:52:31.280Z,18.50
2023-03-06T09:55:03.439Z,19.00
2023-03-06T09:57:36.512Z,16.23
2023-03-06T10:00:08.054Z,13.50
2023-03-06T10:02:40.140Z,15.00
2023-03-06T10:05:13.082Z,16.00
2023-03-06T10:07:47.755Z,14.40
2023-03-06T10:10:23.336Z,15.37
2023-03-06T10:13:01.510Z,14.63
2023-03-06T10:15:34.085Z,14.63
2023-03-06T10:18:03.293Z,14.90
2023-03-06T10:20:37.904Z,14.10
2023-03-06T10:23:31.879Z,15.93
2023-03-06T10:26:02.439Z,16.63
2023-03-06T10:28:35.521Z,14.60
2023-03-06T10:31:10.738Z,13.50
2023-03-06T10:33:54.077Z,16.20
2023-03-06T10:36:25.254Z,14.20
2023-03-06T10:38:55.958Z,11.47
2023-03-06T10:41:29.850Z,13.77
2023-03-06T10:44:24.109Z,15.10
2023-03-06T10:46:54.365Z,15.30
2023-03-06T10:49:34.564Z,12.00
2023-03-06T10:52:06.741Z,14.50
2023-03-06T10:54:37.242Z,12.87
2023-03-06T10:57:26.015Z,12.70
2023-03-06T10:59:55.802Z,13.40
2023-03-06T11:02:32.122Z,15.23
2023-03-06T11:05:03.334Z,14.33
2023-03-06T11:07:32.832Z,15.37
2023-03-06T11:10:09.015Z,12.27
2023-03-06T11:12:38.671Z,13.43
2023-03-06T11:15:22.951Z,14.33
2023-03-06T11:17:57.643Z,11.57
2023-03-06T11:20:29.137Z,10.37
2023-03-06T11:23:03.578Z,11.17
2023-03-06T11:25:35.792Z,12.23
2023-03-06T11:28:06.974Z,11.37
2023-03-06T11:30:42.661Z,13.67
2023-03-06T11:33:18.454Z,11.63
2023-03-06T11:35:52.901Z,11.40
2023-03-06T11:38:23.537Z,11.57
2023-03-06T11:40:55.881Z,12.43
2023-03-06T11:43:29.143Z,14.27
2023-03-06T11:46:01.419Z,10.43
2023-03-06T11:48:35.331Z,10.30
2023-03-06T11:51:11.844Z,8.80
2023-03-06T11:53:41.490Z,12.17
2023-03-06T11:56:29.982Z,13.23
2023-03-06T11:59:12.027Z,15.37
2023-03-06T12:01:46.503Z,11.57
2023-03-06T12:04:38.764Z,13.33
2023-03-06T12:07:20.477Z,14.03
2023-03-06T12:09:55.530Z,12.23
2023-03-06T12:12:50.653Z,12.00
2023-03-06T12:15:30.561Z,13.67
2023-03-06T12:18:28.809Z,12.57
2023-03-06T12:21:04.664Z,12.33
2023-03-06T12:23:54.927Z,11.37
2023-03-06T12:26:41.317Z,11.17
2023-03-06T12:29:28.048Z,11.53
2023-03-06T12:32:14.720Z,11.43
2023-03-06T12:35:01.018Z,11.83
2023-03-06T12:37:42.055Z,11.47
2023-03-06T12:40:28.568Z,10.37
2023-03-06T12:43:14.116Z,12.80
2023-03-06T12:45:44.207Z,11.03
2023-03-06T12:48:17.366Z,9.50
2023-03-06T12:50:46.194Z,11.90
2023-03-06T12:53:22.808Z,10.33
2023-03-06T12:55:51.508Z,10.50
2023-03-06T12:58:48.586Z,13.10
2023-03-06T13:01:40.130Z,11.67
2023-03-06T13:04:28.552Z,12.43
2023-03-06T13:07:12.269Z,11.73
2023-03-06T13:09:59.803Z,13.53
2023-03-06T13:12:44.188Z,11.57
2023-03-06T13:15:38.224Z,11.37
2023-03-06T13:18:58.030Z,10.83
2023-03-06T13:21:48.612Z,11.43
2023-03-06T13:24:21.179Z,11.80
2023-03-06T13:26:52.296Z,10.23
2023-03-06T13:30:02.416Z,12.43
2023-03-06T13:32:33.498Z,11.07
2023-03-06T13:35:01.336Z,13.33
2023-03-06T13:37:54.753Z,11.70
2023-03-06T13:40:34.126Z,9.43
2023-03-06T13:43:19.260Z,8.80
2023-03-06T13:45:49.024Z,7.97
2023-03-06T13:48:47.645Z,8.50
2023-03-06T13:51:23.314Z,8.77
2023-03-06T13:54:23.051Z,9.30
2023-03-06T13:57:18.188Z,7.40
2023-03-06T14:00:15.373Z,8.17
2023-03-06T14:03:22.397Z,8.47
2023-03-06T14:05:51.722Z,10.63
2023-03-06T14:08:21.305Z,9.60
2023-03-06T14:11:01.643Z,7.67
2023-03-06T14:13:46.683Z,8.43
2023-03-06T14:16:20.997Z,9.13
2023-03-06T14:18:50.456Z,9.90
2023-03-06T14:21:30.433Z,9.90
2023-03-06T14:24:00.680Z,9.47
2023-03-06T14:26:34.465Z,8.43
2023-03-06T14:29:03.265Z,11.10
2023-03-06T14:31:33.847Z,12.47
2023-03-06T14:34:04.882Z,11.60
2023-03-06T14:36:35.596Z,11.80
2023-03-06T14:39:08.793Z,13.97
2023-03-06T14:41:38.271Z,13.97
2023-03-06T14:44:10.746Z,13.17
2023-03-06T14:46:38.968Z,15.17
2023-03-06T14:49:08.415Z,11.43
2023-03-06T14:51:41.690Z,11.13
2023-03-06T14:54:16.593Z,12.20
2023-03-06T14:56:48.957Z,13.47
2023-03-06T14:59:21.516Z,11.50
2023-03-06T15:01:52.000Z,12.57
2023-03-06T15:04:26.903Z,15.33
2023-03-06T15:06:55.554Z,13.47
2023-03-06T15:09:26.514Z,11.37
2023-03-06T15:11:58.437Z,13.40
2023-03-06T15:14:32.506Z,11.30
2023-03-06T15:17:39.265Z,13.37
2023-03-06T15:20:09.009Z,12.47
2023-03-06T15:22:38.847Z,12.63
2023-03-06T15:25:26.714Z,11.13
2023-03-06T15:27:57.683Z,11.80
2023-03-06T15:30:29.397Z,15.50
2023-03-06T15:33:11.508Z,11.30
2023-03-06T15:35:39.841Z,9.47
2023-03-06T15:38:25.358Z,9.23
2023-03-06T15:40:57.587Z,11.53
2023-03-06T15:43:27.754Z,10.57
2023-03-06T15:45:59.581Z,10.43
2023-03-06T15:48:28.382Z,9.20
2023-03-06T15:50:56.303Z,10.10
2023-03-06T15:53:24.202Z,11.80
2023-03-06T15:55:52.992Z,11.53
2023-03-06T15:58:24.854Z,10.30
2023-03-06T16:00:54.100Z,11.07
2023-03-06T16:03:22.125Z,9.97
2023-03-06T16:05:49.918Z,12.37
2023-03-06T16:08:17.756Z,11.83
2023-03-06T16:10:46.870Z,17.13
2023-03-06T16:13:17.590Z,13.23
2023-03-06T16:15:48.724Z,14.10
2023-03-06T16:18:18.637Z,16.17
2023-03-06T16:20:46.568Z,20.27
2023-03-06T16:23:16.043Z,20.00
2023-03-06T16:25:48.641Z,18.63
2023-03-06T16:28:17.567Z,17.93
2023-03-06T16:30:46.046Z,21.30
2023-03-06T16:33:14.820Z,17.10
2023-03-06T16:35:46.592Z,17.30
2023-03-06T16:38:15.573Z,17.10
2023-03-06T16:40:43.871Z,20.97
2023-03-06T16:43:13.516Z,21.10
2023-03-06T16:45:42.774Z,16.70
2023-03-06T16:48:16.097Z,18.87
2023-03-06T16:50:45.704Z,20.83
2023-03-06T16:53:13.723Z,17.53
2023-03-06T16:55:41.558Z,18.03
2023-03-06T16:58:09.939Z,17.50
2023-03-06T17:00:37.710Z,17.07
2023-03-06T17:03:05.592Z,18.17
2023-03-06T17:05:34.680Z,19.67
2023-03-06T17:08:04.616Z,19.33
2023-03-06T17:10:32.658Z,33.13
2023-03-06T17:13:00.420Z,21.33
2023-03-06T17:15:28.303Z,21.53
2023-03-06T17:17:56.917Z,22.17
2023-03-06T17:20:24.785Z,23.87
2023-03-06T17:22:52.709Z,24.40
2023-03-06T17:25:21.773Z,25.00
2023-03-06T17:27:49.497Z,24.67
2023-03-06T17:30:17.512Z,19.30
2023-03-06T17:32:45.206Z,19.17
2023-03-06T17:35:12.963Z,20.30
2023-03-06T17:37:40.678Z,20.87
2023-03-06T17:40:10.662Z,17.63
2023-03-06T17:42:39.855Z,18.63
2023-03-06T17:45:09.277Z,17.97
2023-03-06T17:47:37.016Z,18.17
2023-03-06T17:50:05.168Z,19.77
2023-03-06T17:52:33.462Z,19.10
2023-03-06T17:55:01.146Z,19.50
2023-03-06T17:57:28.865Z,19.93
2023-03-06T17:59:57.945Z,16.90
2023-03-06T18:02:25.616Z,17.83
2023-03-06T18:04:53.499Z,21.80
2023-03-06T18:07:21.141Z,18.70
2023-03-06T18:09:48.970Z,19.73
2023-03-06T18:12:16.824Z,16.47
2023-03-06T18:14:44.580Z,17.57
2023-03-06T18:17:13.590Z,17.60
2023-03-06T18:19:41.304Z,18.90
2023-03-06T18:22:09.064Z,17.70
2023-03-06T18:24:37.653Z,19.00
2023-03-06T18:27:05.351Z,16.37
2023-03-06T18:29:33.069Z,15.60
2023-03-06T18:32:01.946Z,15.43
2023-03-06T18:34:31.095Z,18.50
2023-03-06T18:36:58.853Z,16.63
2023-03-06T18:39:26.581Z,17.00
2023-03-06T18:41:54.790Z,14.33
2023-03-06T18:44:22.534Z,19.73
2023-03-06T18:46:50.361Z,18.50
2023-03-06T18:49:18.173Z,22.20
2023-03-06T18:51:48.142Z,19.20
2023-03-06T18:54:20.459Z,16.20
2023-03-06T18:56:48.116Z,19.73
2023-03-06T18:59:18.825Z,19.43
2023-03-06T19:01:47.548Z,18.40
2023-03-06T19:04:15.711Z,20.13
2023-03-06T19:06:43.496Z,15.97
2023-03-06T19:09:12.621Z,19.53
2023-03-06T19:11:40.538Z,19.67
2023-03-06T19:14:08.627Z,20.03
2023-03-06T19:16:36.397Z,22.10
2023-03-06T19:19:04.242Z,19.57
2023-03-06T19:21:32.053Z,19.03
2023-03-06T19:23:59.829Z,20.17
2023-03-06T19:26:29.038Z,19.57
2023-03-06T19:28:57.088Z,21.17
2023-03-06T19:31:26.623Z,19.83
2023-03-06T19:33:56.620Z,21.50
2023-03-06T19:36:27.594Z,21.10
2023-03-06T19:38:56.029Z,21.67
2023-03-06T19:41:24.016Z,21.10
2023-03-06T19:43:55.342Z,19.10
2023-03-06T19:46:24.106Z,21.27
2023-03-06T19:48:56.183Z,17.97
2023-03-06T19:51:24.675Z,19.60
2023-03-06T19:53:52.660Z,20.10
2023-03-06T19:56:22.289Z,21.27
2023-03-06T19:58:50.040Z,22.00
2023-03-06T20:01:20.748Z,20.17
2023-03-06T20:03:50.598Z,20.97
2023-03-06T20:06:22.024Z,23.77
2023-03-06T20:08:50.219Z,23.73
2023-03-06T20:11:19.331Z,21.80
2023-03-06T20:13:48.090Z,24.83
2023-03-06T20:16:16.536Z,21.93
2023-03-06T20:18:46.256Z,21.47
2023-03-06T20:21:14.903Z,22.93
2023-03-06T20:23:43.153Z,23.20
2023-03-06T20:26:13.413Z,25.10
2023-03-06T20:28:42.462Z,22.37
2023-03-06T20:31:11.781Z,23.90
2023-03-06T20:33:39.656Z,23.60
2023-03-06T20:36:14.068Z,22.60
2023-03-06T20:38:42.016Z,21.90
2023-03-06T20:41:15.338Z,21.93
2023-03-06T20:43:43.327Z,22.07
2023-03-06T20:46:12.325Z,23.70
2023-03-06T20:48:40.303Z,21.73
2023-03-06T20:51:10.935Z,20.70
2023-03-06T20:53:40.119Z,20.93
2023-03-06T20:56:11.810Z,21.63
2023-03-06T20:58:39.510Z,21.13
2023-03-06T21:01:07.264Z,22.80
2023-03-06T21:03:35.016Z,22.17
2023-03-06T21:06:02.843Z,23.17
2023-03-06T21:08:32.061Z,22.77
2023-03-06T21:11:01.108Z,23.37
2023-03-06T21:13:28.936Z,21.90
2023-03-06T21:15:56.668Z,22.87
2023-03-06T21:18:24.459Z,23.47
2023-03-06T21:20:52.427Z,20.23
2023-03-06T21:23:20.318Z,23.70
2023-03-06T21:25:48.970Z,20.97
2023-03-06T21:28:19.030Z,20.97
2023-03-06T21:30:47.208Z,19.10
2023-03-06T21:33:16.081Z,20.07
2023-03-06T21:35:45.368Z,22.17
2023-03-06T21:38:13.850Z,19.43
2023-03-06T21:40:42.732Z,17.43
2023-03-06T21:43:11.352Z,17.70
2023-03-06T21:45:44.586Z,18.87
2023-03-06T21:48:13.020Z,18.80
2023-03-06T21:50:41.321Z,16.57
2023-03-06T21:53:09.947Z,17.53
2023-03-06T21:55:41.350Z,25.50
2023-03-06T21:58:09.252Z,17.77
2023-03-06T22:00:37.514Z,21.43
2023-03-06T22:03:06.952Z,17.57
2023-03-06T22:05:36.351Z,17.47
2023-03-06T22:08:04.376Z,19.23
2023-03-06T22:10:32.520Z,18.43
2023-03-06T22:13:00.954Z,18.50
2023-03-06T22:15:30.285Z,16.97
2023-03-06T22:17:58.065Z,19.33
2023-03-06T22:20:27.283Z,19.17
2023-03-06T22:22:55.162Z,19.33
2023-03-06T22:25:22.886Z,17.20
2023-03-06T22:27:50.702Z,16.60
2023-03-06T22:30:18.947Z,18.63
2023-03-06T22:32:46.929Z,18.77
2023-03-06T22:35:14.820Z,19.80
2023-03-06T22:37:43.907Z,20.10
2023-03-06T22:40:12.826Z,19.50
2023-03-06T22:42:40.617Z,18.13
2023-03-06T22:45:09.531Z,19.13
2023-03-06T22:47:37.351Z,20.00
2023-03-06T22:50:05.585Z,16.50
2023-03-06T22:52:33.770Z,17.27
2023-03-06T22:55:03.110Z,17.90
2023-03-06T22:57:31.001Z,21.07
2023-03-06T22:59:58.981Z,16.37
2023-03-06T23:02:26.783Z,19.87
2023-03-06T23:04:54.609Z,18.20
2023-03-06T23:07:22.421Z,16.93
2023-03-06T23:09:50.040Z,18.33
2023-03-06T23:12:19.064Z,17.87
2023-03-06T23:14:49.637Z,17.77
2023-03-06T23:17:17.541Z,19.57
2023-03-06T23:19:45.756Z,16.27
2023-03-06T23:22:17.309Z,17.90
2023-03-06T23:24:45.184Z,18.57
2023-03-06T23:27:12.967Z,19.03
2023-03-06T23:29:42.013Z,18.20
2023-03-06T23:32:09.821Z,17.63
2023-03-06T23:34:37.516Z,18.97
2023-03-06T23:37:05.444Z,18.57
2023-03-06T23:39:33.615Z,18.83
2023-03-06T23:42:01.385Z,20.73
2023-03-06T23:44:29.241Z,19.13
2023-03-06T23:46:58.286Z,20.33
2023-03-06T23:49:26.159Z,21.20
2023-03-06T23:51:53.876Z,18.63
2023-03-06T23:54:21.580Z,19.27
2023-03-06T23:56:49.302Z,20.70
2023-03-06T23:59:17.106Z,20.80
